sensor_id;sensor_type;location;lat;lon;timestamp;P1;durP1;ratioP1;P2;durP2;ratioP2
65189;SDS011;51777;53.570;9.984;2022-10-16T00:00:36;9.75;;;5.78;;
65189;SDS011;51777;53.570;9.984;2022-10-16T00:03:03;14.07;;;5.60;;
65189;SDS011;51777;53.570;9.984;2022-10-16T00:05:29;9.27;;;5.95;;
65189;SDS011;51777;53.570;9.984;2022-10-16T00:07:54;9.77;;;5.68;;
65189;SDS011;51777;53.570;9.984;2022-10-16T00:10:20;9.93;;;5.28;;
65189;SDS011;51777;53.570;9.984;2022-10-16T00:12:45;8.10;;;5.38;;
65189;SDS011;51777;53.570;9.984;2022-10-16T00:15:11;10.55;;;4.93;;
65189;SDS011;51777;53.570;9.984;2022-10-16T00:17:36;8.27;;;4.35;;
65189;SDS011;51777;53.570;9.984;2022-10-16T00:20:02;10.57;;;4.07;;
65189;SDS011;51777;53.570;9.984;2022-10-16T00:22:28;13.05;;;4.15;;
65189;SDS011;51777;53.570;9.984;2022-10-16T00:24:53;8.65;;;3.50;;
65189;SDS011;51777;53.570;9.984;2022-10-16T00:27:18;10.45;;;3.90;;
65189;SDS011;51777;53.570;9.984;2022-10-16T00:29:44;6.30;;;3.40;;
65189;SDS011;51777;53.570;9.984;2022-10-16T00:32:09;7.55;;;3.30;;
65189;SDS011;51777;53.570;9.984;2022-10-16T00:34:35;5.75;;;3.40;;
65189;SDS011;51777;53.570;9.984;2022-10-16T00:37:00;6.47;;;3.00;;
65189;SDS011;51777;53.570;9.984;2022-10-16T00:39:26;8.68;;;2.75;;
65189;SDS011;51777;53.570;9.984;2022-10-16T00:41:51;6.75;;;2.97;;
65189;SDS011;51777;53.570;9.984;2022-10-16T00:47:21;9.38;;;2.60;;
65189;SDS011;51777;53.570;9.984;2022-10-16T00:49:51;10.05;;;2.92;;
65189;SDS011;51777;53.570;9.984;2022-10-16T00:52:20;5.63;;;2.40;;
65189;SDS011;51777;53.570;9.984;2022-10-16T00:54:46;4.65;;;2.38;;
65189;SDS011;51777;53.570;9.984;2022-10-16T00:57:14;4.35;;;2.30;;
65189;SDS011;51777;53.570;9.984;2022-10-16T00:59:40;10.48;;;2.30;;
65189;SDS011;51777;53.570;9.984;2022-10-16T01:02:09;4.25;;;2.00;;
65189;SDS011;51777;53.570;9.984;2022-10-16T01:04:37;3.55;;;1.83;;
65189;SDS011;51777;53.570;9.984;2022-10-16T01:07:11;5.40;;;1.80;;
65189;SDS011;51777;53.570;9.984;2022-10-16T01:20:09;5.22;;;2.00;;
65189;SDS011;51777;53.570;9.984;2022-10-16T01:22:39;8.13;;;1.95;;
65189;SDS011;51777;53.570;9.984;2022-10-16T01:25:17;6.15;;;2.10;;
65189;SDS011;51777;53.570;9.984;2022-10-16T01:27:50;5.57;;;2.00;;
65189;SDS011;51777;53.570;9.984;2022-10-16T01:30:18;6.00;;;2.40;;
65189;SDS011;51777;53.570;9.984;2022-10-16T01:35:36;10.57;;;2.10;;
65189;SDS011;51777;53.570;9.984;2022-10-16T01:38:15;5.93;;;1.92;;
65189;SDS011;51777;53.570;9.984;2022-10-16T01:40:44;4.97;;;2.10;;
65189;SDS011;51777;53.570;9.984;2022-10-16T01:43:15;4.65;;;2.10;;
65189;SDS011;51777;53.570;9.984;2022-10-16T01:45:45;6.13;;;2.10;;
65189;SDS011;51777;53.570;9.984;2022-10-16T01:48:15;6.38;;;2.08;;
65189;SDS011;51777;53.570;9.984;2022-10-16T01:50:43;4.07;;;1.90;;
65189;SDS011;51777;53.570;9.984;2022-10-16T01:53:14;4.35;;;1.88;;
65189;SDS011;51777;53.570;9.984;2022-10-16T01:55:43;5.10;;;1.90;;
65189;SDS011;51777;53.570;9.984;2022-10-16T01:58:11;3.55;;;1.80;;
65189;SDS011;51777;53.570;9.984;2022-10-16T02:00:39;12.13;;;2.00;;
65189;SDS011;51777;53.570;9.984;2022-10-16T02:03:08;5.05;;;1.90;;
65189;SDS011;51777;53.570;9.984;2022-10-16T02:05:39;4.50;;;1.85;;
65189;SDS011;51777;53.570;9.984;2022-10-16T02:08:10;5.70;;;1.85;;
65189;SDS011;51777;53.570;9.984;2022-10-16T02:10:36;10.40;;;2.17;;
65189;SDS011;51777;53.570;9.984;2022-10-16T02:13:06;3.92;;;1.80;;
65189;SDS011;51777;53.570;9.984;2022-10-16T02:15:37;6.57;;;1.92;;
65189;SDS011;51777;53.570;9.984;2022-10-16T02:18:04;6.35;;;1.63;;
65189;SDS011;51777;53.570;9.984;2022-10-16T02:20:32;6.60;;;1.65;;
65189;SDS011;51777;53.570;9.984;2022-10-16T02:23:04;3.22;;;1.70;;
65189;SDS011;51777;53.570;9.984;2022-10-16T02:25:37;6.88;;;2.38;;
65189;SDS011;51777;53.570;9.984;2022-10-16T02:28:19;3.50;;;1.70;;
65189;SDS011;51777;53.570;9.984;2022-10-16T02:30:54;5.78;;;1.60;;
65189;SDS011;51777;53.570;9.984;2022-10-16T02:33:26;3.22;;;1.77;;
65189;SDS011;51777;53.570;9.984;2022-10-16T02:35:54;3.88;;;1.50;;
65189;SDS011;51777;53.570;9.984;2022-10-16T02:38:22;6.63;;;1.85;;
65189;SDS011;51777;53.570;9.984;2022-10-16T02:40:49;5.60;;;1.60;;
65189;SDS011;51777;53.570;9.984;2022-10-16T02:43:15;4.60;;;1.70;;
65189;SDS011;51777;53.570;9.984;2022-10-16T02:45:41;3.60;;;1.75;;
65189;SDS011;51777;53.570;9.984;2022-10-16T02:48:06;8.88;;;1.63;;
65189;SDS011;51777;53.570;9.984;2022-10-16T02:50:32;5.90;;;1.92;;
65189;SDS011;51777;53.570;9.984;2022-10-16T02:52:57;5.55;;;1.83;;
65189;SDS011;51777;53.570;9.984;2022-10-16T02:55:23;4.32;;;1.60;;
65189;SDS011;51777;53.570;9.984;2022-10-16T02:57:48;5.40;;;1.80;;
65189;SDS011;51777;53.570;9.984;2022-10-16T03:00:14;4.72;;;1.70;;
65189;SDS011;51777;53.570;9.984;2022-10-16T03:02:42;4.15;;;1.60;;
65189;SDS011;51777;53.570;9.984;2022-10-16T03:05:08;6.70;;;1.83;;
65189;SDS011;51777;53.570;9.984;2022-10-16T03:07:35;7.70;;;1.58;;
65189;SDS011;51777;53.570;9.984;2022-10-16T03:10:00;5.07;;;1.67;;
65189;SDS011;51777;53.570;9.984;2022-10-16T03:12:26;4.68;;;1.35;;
65189;SDS011;51777;53.570;9.984;2022-10-16T03:14:52;10.63;;;1.42;;
65189;SDS011;51777;53.570;9.984;2022-10-16T03:17:18;6.13;;;1.70;;
65189;SDS011;51777;53.570;9.984;2022-10-16T03:19:43;8.75;;;1.70;;
65189;SDS011;51777;53.570;9.984;2022-10-16T03:22:08;5.10;;;1.33;;
65189;SDS011;51777;53.570;9.984;2022-10-16T03:24:34;5.13;;;1.48;;
65189;SDS011;51777;53.570;9.984;2022-10-16T03:26:59;7.07;;;1.80;;
65189;SDS011;51777;53.570;9.984;2022-10-16T03:29:25;8.27;;;1.45;;
65189;SDS011;51777;53.570;9.984;2022-10-16T03:31:51;5.55;;;1.42;;
65189;SDS011;51777;53.570;9.984;2022-10-16T03:34:16;3.80;;;1.80;;
65189;SDS011;51777;53.570;9.984;2022-10-16T03:36:41;6.43;;;1.58;;
65189;SDS011;51777;53.570;9.984;2022-10-16T03:39:07;6.03;;;1.90;;
65189;SDS011;51777;53.570;9.984;2022-10-16T03:41:32;4.85;;;1.70;;
65189;SDS011;51777;53.570;9.984;2022-10-16T03:43:57;4.47;;;1.70;;
65189;SDS011;51777;53.570;9.984;2022-10-16T03:46:23;8.40;;;1.40;;
65189;SDS011;51777;53.570;9.984;2022-10-16T03:48:48;13.20;;;1.83;;
65189;SDS011;51777;53.570;9.984;2022-10-16T03:51:14;4.95;;;1.60;;
65189;SDS011;51777;53.570;9.984;2022-10-16T03:53:39;3.88;;;1.52;;
65189;SDS011;51777;53.570;9.984;2022-10-16T03:56:05;5.82;;;1.60;;
65189;SDS011;51777;53.570;9.984;2022-10-16T03:58:30;3.38;;;1.65;;
65189;SDS011;51777;53.570;9.984;2022-10-16T04:00:56;8.73;;;1.85;;
65189;SDS011;51777;53.570;9.984;2022-10-16T04:03:21;8.50;;;1.58;;
65189;SDS011;51777;53.570;9.984;2022-10-16T04:05:47;6.43;;;2.15;;
65189;SDS011;51777;53.570;9.984;2022-10-16T04:08:13;5.72;;;2.30;;
65189;SDS011;51777;53.570;9.984;2022-10-16T04:10:38;5.55;;;1.80;;
65189;SDS011;51777;53.570;9.984;2022-10-16T04:13:04;5.80;;;2.03;;
65189;SDS011;51777;53.570;9.984;2022-10-16T04:15:29;6.28;;;1.90;;
65189;SDS011;51777;53.570;9.984;2022-10-16T04:17:55;3.95;;;1.77;;
65189;SDS011;51777;53.570;9.984;2022-10-16T04:20:20;5.43;;;1.70;;
65189;SDS011;51777;53.570;9.984;2022-10-16T04:22:46;4.38;;;1.70;;
65189;SDS011;51777;53.570;9.984;2022-10-16T04:25:11;3.72;;;1.85;;
65189;SDS011;51777;53.570;9.984;2022-10-16T04:27:37;4.95;;;1.67;;
65189;SDS011;51777;53.570;9.984;2022-10-16T04:30:03;5.85;;;1.98;;
65189;SDS011;51777;53.570;9.984;2022-10-16T04:32:29;5.18;;;1.80;;
65189;SDS011;51777;53.570;9.984;2022-10-16T04:34:54;4.50;;;2.03;;
65189;SDS011;51777;53.570;9.984;2022-10-16T04:37:23;7.63;;;1.77;;
65189;SDS011;51777;53.570;9.984;2022-10-16T04:39:52;4.20;;;1.73;;
65189;SDS011;51777;53.570;9.984;2022-10-16T04:42:20;2.22;;;1.55;;
65189;SDS011;51777;53.570;9.984;2022-10-16T04:44:45;6.07;;;1.67;;
65189;SDS011;51777;53.570;9.984;2022-10-16T04:47:11;6.10;;;1.80;;
65189;SDS011;51777;53.570;9.984;2022-10-16T04:49:37;6.00;;;1.52;;
65189;SDS011;51777;53.570;9.984;2022-10-16T04:52:02;5.70;;;1.63;;
65189;SDS011;51777;53.570;9.984;2022-10-16T04:54:28;4.20;;;1.80;;
65189;SDS011;51777;53.570;9.984;2022-10-16T04:56:53;4.45;;;1.77;;
65189;SDS011;51777;53.570;9.984;2022-10-16T04:59:19;3.47;;;1.58;;
65189;SDS011;51777;53.570;9.984;2022-10-16T05:01:46;10.30;;;1.95;;
65189;SDS011;51777;53.570;9.984;2022-10-16T05:04:11;4.90;;;1.90;;
65189;SDS011;51777;53.570;9.984;2022-10-16T05:06:37;6.57;;;1.98;;
65189;SDS011;51777;53.570;9.984;2022-10-16T05:09:03;7.25;;;2.40;;
65189;SDS011;51777;53.570;9.984;2022-10-16T05:11:30;8.95;;;2.28;;
65189;SDS011;51777;53.570;9.984;2022-10-16T05:13:55;7.32;;;2.28;;
65189;SDS011;51777;53.570;9.984;2022-10-16T05:16:21;5.57;;;1.98;;
65189;SDS011;51777;53.570;9.984;2022-10-16T05:18:47;10.82;;;2.28;;
65189;SDS011;51777;53.570;9.984;2022-10-16T05:21:12;7.82;;;2.25;;
65189;SDS011;51777;53.570;9.984;2022-10-16T05:23:38;6.57;;;2.30;;
65189;SDS011;51777;53.570;9.984;2022-10-16T05:26:03;8.43;;;2.00;;
65189;SDS011;51777;53.570;9.984;2022-10-16T05:28:29;5.75;;;2.30;;
65189;SDS011;51777;53.570;9.984;2022-10-16T05:30:55;10.00;;;2.40;;
65189;SDS011;51777;53.570;9.984;2022-10-16T05:33:21;5.20;;;2.30;;
65189;SDS011;51777;53.570;9.984;2022-10-16T05:35:47;6.80;;;2.25;;
65189;SDS011;51777;53.570;9.984;2022-10-16T05:38:14;5.22;;;2.30;;
65189;SDS011;51777;53.570;9.984;2022-10-16T05:40:40;7.43;;;2.50;;
65189;SDS011;51777;53.570;9.984;2022-10-16T05:43:05;6.32;;;2.00;;
65189;SDS011;51777;53.570;9.984;2022-10-16T05:45:31;5.32;;;2.25;;
65189;SDS011;51777;53.570;9.984;2022-10-16T05:47:56;8.73;;;1.90;;
65189;SDS011;51777;53.570;9.984;2022-10-16T05:50:21;8.68;;;1.95;;
65189;SDS011;51777;53.570;9.984;2022-10-16T05:52:47;8.07;;;2.10;;
65189;SDS011;51777;53.570;9.984;2022-10-16T05:55:12;7.07;;;2.00;;
65189;SDS011;51777;53.570;9.984;2022-10-16T05:57:37;4.50;;;1.90;;
65189;SDS011;51777;53.570;9.984;2022-10-16T06:00:04;4.63;;;2.20;;
65189;SDS011;51777;53.570;9.984;2022-10-16T06:02:30;5.13;;;1.85;;
65189;SDS011;51777;53.570;9.984;2022-10-16T06:04:55;12.00;;;2.05;;
65189;SDS011;51777;53.570;9.984;2022-10-16T06:07:21;11.25;;;2.35;;
65189;SDS011;51777;53.570;9.984;2022-10-16T06:09:50;4.47;;;2.03;;
65189;SDS011;51777;53.570;9.984;2022-10-16T06:12:17;4.63;;;2.10;;
65189;SDS011;51777;53.570;9.984;2022-10-16T06:14:42;4.55;;;1.75;;
65189;SDS011;51777;53.570;9.984;2022-10-16T06:17:08;4.82;;;1.92;;
65189;SDS011;51777;53.570;9.984;2022-10-16T06:19:33;4.00;;;2.10;;
65189;SDS011;51777;53.570;9.984;2022-10-16T06:21:58;4.85;;;1.80;;
65189;SDS011;51777;53.570;9.984;2022-10-16T06:24:25;5.00;;;2.13;;
65189;SDS011;51777;53.570;9.984;2022-10-16T06:26:51;6.70;;;2.05;;
65189;SDS011;51777;53.570;9.984;2022-10-16T06:29:17;3.95;;;1.88;;
65189;SDS011;51777;53.570;9.984;2022-10-16T06:31:42;4.65;;;1.90;;
65189;SDS011;51777;53.570;9.984;2022-10-16T06:34:08;4.30;;;1.92;;
65189;SDS011;51777;53.570;9.984;2022-10-16T06:36:35;5.00;;;1.80;;
65189;SDS011;51777;53.570;9.984;2022-10-16T06:39:04;6.00;;;2.08;;
65189;SDS011;51777;53.570;9.984;2022-10-16T06:41:30;5.80;;;1.90;;
65189;SDS011;51777;53.570;9.984;2022-10-16T06:43:55;4.60;;;1.60;;
65189;SDS011;51777;53.570;9.984;2022-10-16T06:46:22;5.78;;;2.08;;
65189;SDS011;51777;53.570;9.984;2022-10-16T06:48:48;8.02;;;2.38;;
65189;SDS011;51777;53.570;9.984;2022-10-16T06:51:16;6.80;;;2.20;;
65189;SDS011;51777;53.570;9.984;2022-10-16T06:53:50;3.83;;;2.10;;
65189;SDS011;51777;53.570;9.984;2022-10-16T06:56:25;4.32;;;2.10;;
65189;SDS011;51777;53.570;9.984;2022-10-16T06:58:52;4.57;;;2.25;;
65189;SDS011;51777;53.570;9.984;2022-10-16T07:01:19;3.83;;;1.90;;
65189;SDS011;51777;53.570;9.984;2022-10-16T07:03:46;4.93;;;2.13;;
65189;SDS011;51777;53.570;9.984;2022-10-16T07:06:14;5.03;;;2.40;;
65189;SDS011;51777;53.570;9.984;2022-10-16T07:08:42;3.90;;;2.20;;
65189;SDS011;51777;53.570;9.984;2022-10-16T07:11:13;8.93;;;2.42;;
65189;SDS011;51777;53.570;9.984;2022-10-16T07:13:44;5.45;;;2.00;;
65189;SDS011;51777;53.570;9.984;2022-10-16T07:16:12;4.47;;;2.05;;
65189;SDS011;51777;53.570;9.984;2022-10-16T07:18:37;6.95;;;2.20;;
65189;SDS011;51777;53.570;9.984;2022-10-16T07:21:06;4.90;;;2.25;;
65189;SDS011;51777;53.570;9.984;2022-10-16T07:23:35;6.07;;;2.20;;
65189;SDS011;51777;53.570;9.984;2022-10-16T07:26:01;4.65;;;2.13;;
65189;SDS011;51777;53.570;9.984;2022-10-16T07:28:27;8.52;;;2.00;;
65189;SDS011;51777;53.570;9.984;2022-10-16T07:30:53;3.65;;;2.15;;
65189;SDS011;51777;53.570;9.984;2022-10-16T07:33:18;3.40;;;2.30;;
65189;SDS011;51777;53.570;9.984;2022-10-16T07:35:48;3.20;;;2.30;;
65189;SDS011;51777;53.570;9.984;2022-10-16T07:38:17;5.57;;;2.47;;
65189;SDS011;51777;53.570;9.984;2022-10-16T07:40:43;5.97;;;2.30;;
65189;SDS011;51777;53.570;9.984;2022-10-16T07:43:08;5.28;;;3.08;;
65189;SDS011;51777;53.570;9.984;2022-10-16T07:45:33;6.75;;;2.30;;
65189;SDS011;51777;53.570;9.984;2022-10-16T07:47:59;4.47;;;2.20;;
65189;SDS011;51777;53.570;9.984;2022-10-16T07:50:24;5.65;;;2.20;;
65189;SDS011;51777;53.570;9.984;2022-10-16T07:52:49;4.93;;;1.80;;
65189;SDS011;51777;53.570;9.984;2022-10-16T07:55:15;8.90;;;2.10;;
65189;SDS011;51777;53.570;9.984;2022-10-16T07:57:40;3.50;;;2.10;;
65189;SDS011;51777;53.570;9.984;2022-10-16T08:00:06;3.80;;;2.50;;
65189;SDS011;51777;53.570;9.984;2022-10-16T08:02:32;7.72;;;2.40;;
65189;SDS011;51777;53.570;9.984;2022-10-16T08:04:57;7.35;;;2.13;;
65189;SDS011;51777;53.570;9.984;2022-10-16T08:07:23;6.22;;;2.20;;
65189;SDS011;51777;53.570;9.984;2022-10-16T08:09:49;5.80;;;2.10;;
65189;SDS011;51777;53.570;9.984;2022-10-16T08:12:16;3.10;;;2.13;;
65189;SDS011;51777;53.570;9.984;2022-10-16T08:14:45;4.95;;;2.10;;
65189;SDS011;51777;53.570;9.984;2022-10-16T08:17:10;3.85;;;2.03;;
65189;SDS011;51777;53.570;9.984;2022-10-16T08:19:39;3.35;;;2.30;;
65189;SDS011;51777;53.570;9.984;2022-10-16T08:22:04;5.30;;;1.95;;
65189;SDS011;51777;53.570;9.984;2022-10-16T08:24:29;4.25;;;2.10;;
65189;SDS011;51777;53.570;9.984;2022-10-16T08:26:56;3.22;;;2.13;;
65189;SDS011;51777;53.570;9.984;2022-10-16T08:29:21;5.30;;;2.15;;
65189;SDS011;51777;53.570;9.984;2022-10-16T08:31:47;10.77;;;3.17;;
65189;SDS011;51777;53.570;9.984;2022-10-16T08:34:12;9.43;;;2.25;;
65189;SDS011;51777;53.570;9.984;2022-10-16T08:36:37;6.88;;;2.05;;
65189;SDS011;51777;53.570;9.984;2022-10-16T08:39:03;8.98;;;1.98;;
65189;SDS011;51777;53.570;9.984;2022-10-16T08:49:30;5.78;;;2.05;;
65189;SDS011;51777;53.570;9.984;2022-10-16T08:51:56;4.90;;;1.90;;
65189;SDS011;51777;53.570;9.984;2022-10-16T08:56:50;3.15;;;1.88;;
65189;SDS011;51777;53.570;9.984;2022-10-16T08:59:16;5.50;;;2.05;;
65189;SDS011;51777;53.570;9.984;2022-10-16T09:01:46;4.60;;;2.15;;
65189;SDS011;51777;53.570;9.984;2022-10-16T09:06:54;4.45;;;1.80;;
65189;SDS011;51777;53.570;9.984;2022-10-16T09:12:09;5.90;;;2.22;;
65189;SDS011;51777;53.570;9.984;2022-10-16T09:22:45;4.60;;;1.65;;
65189;SDS011;51777;53.570;9.984;2022-10-16T09:25:14;5.30;;;1.73;;
65189;SDS011;51777;53.570;9.984;2022-10-16T09:27:42;3.38;;;1.60;;
65189;SDS011;51777;53.570;9.984;2022-10-16T09:30:20;5.63;;;1.55;;
65189;SDS011;51777;53.570;9.984;2022-10-16T09:32:51;5.25;;;1.50;;
65189;SDS011;51777;53.570;9.984;2022-10-16T09:35:21;7.07;;;1.45;;
65189;SDS011;51777;53.570;9.984;2022-10-16T09:37:52;3.30;;;1.33;;
65189;SDS011;51777;53.570;9.984;2022-10-16T09:43:00;4.25;;;1.40;;
65189;SDS011;51777;53.570;9.984;2022-10-16T09:45:30;2.05;;;1.10;;
65189;SDS011;51777;53.570;9.984;2022-10-16T09:47:56;4.20;;;1.20;;
65189;SDS011;51777;53.570;9.984;2022-10-16T09:52:49;5.63;;;1.60;;
65189;SDS011;51777;53.570;9.984;2022-10-16T09:55:15;2.38;;;1.25;;
65189;SDS011;51777;53.570;9.984;2022-10-16T09:57:52;4.93;;;1.48;;
65189;SDS011;51777;53.570;9.984;2022-10-16T10:00:18;4.38;;;1.38;;
65189;SDS011;51777;53.570;9.984;2022-10-16T10:02:45;4.38;;;1.50;;
65189;SDS011;51777;53.570;9.984;2022-10-16T10:05:21;2.95;;;1.30;;
65189;SDS011;51777;53.570;9.984;2022-10-16T10:08:01;5.82;;;1.40;;
65189;SDS011;51777;53.570;9.984;2022-10-16T10:10:32;3.50;;;1.45;;
65189;SDS011;51777;53.570;9.984;2022-10-16T10:13:01;5.47;;;2.10;;
65189;SDS011;51777;53.570;9.984;2022-10-16T10:15:27;2.63;;;1.30;;
65189;SDS011;51777;53.570;9.984;2022-10-16T10:17:58;4.85;;;1.63;;
65189;SDS011;51777;53.570;9.984;2022-10-16T10:22:53;5.32;;;1.50;;
65189;SDS011;51777;53.570;9.984;2022-10-16T10:25:23;5.47;;;1.23;;
65189;SDS011;51777;53.570;9.984;2022-10-16T10:33:41;3.85;;;1.30;;
65189;SDS011;51777;53.570;9.984;2022-10-16T10:36:12;3.67;;;1.15;;
65189;SDS011;51777;53.570;9.984;2022-10-16T10:44:32;5.30;;;1.35;;
65189;SDS011;51777;53.570;9.984;2022-10-16T10:49:46;8.07;;;1.33;;
65189;SDS011;51777;53.570;9.984;2022-10-16T10:52:33;6.13;;;1.23;;
65189;SDS011;51777;53.570;9.984;2022-10-16T10:58:01;3.53;;;0.98;;
65189;SDS011;51777;53.570;9.984;2022-10-16T11:06:10;2.70;;;1.02;;
65189;SDS011;51777;53.570;9.984;2022-10-16T11:08:49;8.63;;;1.30;;
65189;SDS011;51777;53.570;9.984;2022-10-16T11:11:35;7.32;;;1.30;;
65189;SDS011;51777;53.570;9.984;2022-10-16T11:14:17;4.95;;;1.08;;
65189;SDS011;51777;53.570;9.984;2022-10-16T11:19:34;3.15;;;1.10;;
65189;SDS011;51777;53.570;9.984;2022-10-16T11:22:12;4.60;;;1.10;;
65189;SDS011;51777;53.570;9.984;2022-10-16T11:30:05;6.72;;;1.30;;
65189;SDS011;51777;53.570;9.984;2022-10-16T11:35:27;7.53;;;1.05;;
65189;SDS011;51777;53.570;9.984;2022-10-16T11:38:13;3.25;;;0.80;;
65189;SDS011;51777;53.570;9.984;2022-10-16T11:40:44;4.00;;;0.88;;
65189;SDS011;51777;53.570;9.984;2022-10-16T11:45:41;5.53;;;1.40;;
65189;SDS011;51777;53.570;9.984;2022-10-16T11:50:57;4.70;;;0.88;;
65189;SDS011;51777;53.570;9.984;2022-10-16T11:53:53;3.90;;;1.00;;
65189;SDS011;51777;53.570;9.984;2022-10-16T11:56:25;9.27;;;1.20;;
65189;SDS011;51777;53.570;9.984;2022-10-16T12:01:38;3.03;;;1.17;;
65189;SDS011;51777;53.570;9.984;2022-10-16T12:09:26;6.65;;;0.98;;
65189;SDS011;51777;53.570;9.984;2022-10-16T12:11:54;4.07;;;0.93;;
65189;SDS011;51777;53.570;9.984;2022-10-16T12:14:34;3.90;;;1.10;;
65189;SDS011;51777;53.570;9.984;2022-10-16T12:17:23;3.92;;;1.08;;
65189;SDS011;51777;53.570;9.984;2022-10-16T12:20:12;5.60;;;1.50;;
65189;SDS011;51777;53.570;9.984;2022-10-16T12:22:49;8.18;;;1.50;;
65189;SDS011;51777;53.570;9.984;2022-10-16T12:25:39;4.28;;;1.30;;
65189;SDS011;51777;53.570;9.984;2022-10-16T12:30:52;6.63;;;1.20;;
65189;SDS011;51777;53.570;9.984;2022-10-16T12:33:23;5.22;;;1.40;;
65189;SDS011;51777;53.570;9.984;2022-10-16T12:35:50;6.72;;;1.20;;
65189;SDS011;51777;53.570;9.984;2022-10-16T12:40:47;7.78;;;1.33;;
65189;SDS011;51777;53.570;9.984;2022-10-16T12:43:27;4.80;;;1.10;;
65189;SDS011;51777;53.570;9.984;2022-10-16T12:48:39;9.88;;;1.60;;
65189;SDS011;51777;53.570;9.984;2022-10-16T12:51:11;6.55;;;1.30;;
65189;SDS011;51777;53.570;9.984;2022-10-16T12:53:37;6.13;;;1.48;;
65189;SDS011;51777;53.570;9.984;2022-10-16T12:56:10;7.45;;;1.45;;
65189;SDS011;51777;53.570;9.984;2022-10-16T12:58:46;3.75;;;1.30;;
65189;SDS011;51777;53.570;9.984;2022-10-16T13:01:26;6.05;;;1.45;;
65189;SDS011;51777;53.570;9.984;2022-10-16T13:06:45;5.40;;;1.45;;
65189;SDS011;51777;53.570;9.984;2022-10-16T13:09:32;4.32;;;1.35;;
65189;SDS011;51777;53.570;9.984;2022-10-16T13:12:08;6.93;;;1.40;;
65189;SDS011;51777;53.570;9.984;2022-10-16T13:14:57;3.28;;;1.20;;
65189;SDS011;51777;53.570;9.984;2022-10-16T13:23:47;8.85;;;1.45;;
65189;SDS011;51777;53.570;9.984;2022-10-16T13:26:26;2.80;;;0.95;;
65189;SDS011;51777;53.570;9.984;2022-10-16T13:28:54;6.75;;;1.23;;
65189;SDS011;51777;53.570;9.984;2022-10-16T13:31:24;6.13;;;1.08;;
65189;SDS011;51777;53.570;9.984;2022-10-16T13:33:54;4.53;;;1.20;;
65189;SDS011;51777;53.570;9.984;2022-10-16T13:36:25;6.95;;;1.42;;
65189;SDS011;51777;53.570;9.984;2022-10-16T13:39:06;7.25;;;1.20;;
65189;SDS011;51777;53.570;9.984;2022-10-16T13:41:37;5.88;;;1.15;;
65189;SDS011;51777;53.570;9.984;2022-10-16T13:44:02;6.15;;;1.35;;
65189;SDS011;51777;53.570;9.984;2022-10-16T13:46:29;5.85;;;1.00;;
65189;SDS011;51777;53.570;9.984;2022-10-16T13:49:20;7.05;;;1.25;;
65189;SDS011;51777;53.570;9.984;2022-10-16T13:51:55;6.95;;;1.33;;
65189;SDS011;51777;53.570;9.984;2022-10-16T13:54:22;4.47;;;1.27;;
65189;SDS011;51777;53.570;9.984;2022-10-16T13:56:48;2.88;;;0.85;;
65189;SDS011;51777;53.570;9.984;2022-10-16T13:59:27;4.53;;;1.08;;
65189;SDS011;51777;53.570;9.984;2022-10-16T14:01:59;8.73;;;1.15;;
65189;SDS011;51777;53.570;9.984;2022-10-16T14:04:31;13.18;;;1.83;;
65189;SDS011;51777;53.570;9.984;2022-10-16T14:06:58;10.05;;;1.70;;
65189;SDS011;51777;53.570;9.984;2022-10-16T14:09:24;7.70;;;1.10;;
65189;SDS011;51777;53.570;9.984;2022-10-16T14:11:59;4.95;;;1.30;;
65189;SDS011;51777;53.570;9.984;2022-10-16T14:16:56;5.53;;;1.38;;
65189;SDS011;51777;53.570;9.984;2022-10-16T14:19:22;3.50;;;1.10;;
65189;SDS011;51777;53.570;9.984;2022-10-16T14:21:51;4.88;;;1.27;;
65189;SDS011;51777;53.570;9.984;2022-10-16T14:24:24;4.20;;;1.00;;
65189;SDS011;51777;53.570;9.984;2022-10-16T14:26:52;6.63;;;1.60;;
65189;SDS011;51777;53.570;9.984;2022-10-16T14:29:20;5.45;;;1.35;;
65189;SDS011;51777;53.570;9.984;2022-10-16T14:31:59;7.03;;;1.48;;
65189;SDS011;51777;53.570;9.984;2022-10-16T14:34:30;10.88;;;1.80;;
65189;SDS011;51777;53.570;9.984;2022-10-16T14:37:01;4.07;;;1.13;;
65189;SDS011;51777;53.570;9.984;2022-10-16T14:39:33;5.82;;;1.38;;
65189;SDS011;51777;53.570;9.984;2022-10-16T14:42:00;2.55;;;1.00;;
65189;SDS011;51777;53.570;9.984;2022-10-16T14:44:28;8.13;;;1.60;;
65189;SDS011;51777;53.570;9.984;2022-10-16T14:46:57;3.38;;;1.20;;
65189;SDS011;51777;53.570;9.984;2022-10-16T14:49:32;5.15;;;1.20;;
65189;SDS011;51777;53.570;9.984;2022-10-16T14:51:57;8.65;;;1.40;;
65189;SDS011;51777;53.570;9.984;2022-10-16T14:54:22;6.97;;;1.15;;
65189;SDS011;51777;53.570;9.984;2022-10-16T14:56:49;4.03;;;1.20;;
65189;SDS011;51777;53.570;9.984;2022-10-16T14:59:18;5.00;;;1.10;;
65189;SDS011;51777;53.570;9.984;2022-10-16T15:01:50;8.20;;;1.50;;
65189;SDS011;51777;53.570;9.984;2022-10-16T15:04:17;4.10;;;1.30;;
65189;SDS011;51777;53.570;9.984;2022-10-16T15:06:43;6.28;;;1.38;;
65189;SDS011;51777;53.570;9.984;2022-10-16T15:09:09;8.75;;;1.50;;
65189;SDS011;51777;53.570;9.984;2022-10-16T15:11:34;10.00;;;1.45;;
65189;SDS011;51777;53.570;9.984;2022-10-16T15:14:00;4.18;;;1.40;;
65189;SDS011;51777;53.570;9.984;2022-10-16T15:16:30;3.63;;;1.20;;
65189;SDS011;51777;53.570;9.984;2022-10-16T15:18:56;9.48;;;1.60;;
65189;SDS011;51777;53.570;9.984;2022-10-16T15:21:24;7.65;;;1.65;;
65189;SDS011;51777;53.570;9.984;2022-10-16T15:23:54;5.40;;;1.50;;
65189;SDS011;51777;53.570;9.984;2022-10-16T15:26:21;5.68;;;1.90;;
65189;SDS011;51777;53.570;9.984;2022-10-16T15:28:47;9.90;;;2.13;;
65189;SDS011;51777;53.570;9.984;2022-10-16T15:31:12;7.75;;;1.55;;
65189;SDS011;51777;53.570;9.984;2022-10-16T15:33:38;8.95;;;1.42;;
65189;SDS011;51777;53.570;9.984;2022-10-16T15:36:04;5.20;;;1.42;;
65189;SDS011;51777;53.570;9.984;2022-10-16T15:38:30;12.82;;;1.70;;
65189;SDS011;51777;53.570;9.984;2022-10-16T15:40:55;5.85;;;1.35;;
65189;SDS011;51777;53.570;9.984;2022-10-16T15:43:21;5.32;;;1.30;;
65189;SDS011;51777;53.570;9.984;2022-10-16T15:48:29;7.80;;;1.50;;
65189;SDS011;51777;53.570;9.984;2022-10-16T15:50:59;7.28;;;1.70;;
65189;SDS011;51777;53.570;9.984;2022-10-16T15:53:25;8.13;;;1.95;;
65189;SDS011;51777;53.570;9.984;2022-10-16T15:55:50;5.25;;;1.40;;
65189;SDS011;51777;53.570;9.984;2022-10-16T15:58:15;7.25;;;1.63;;
65189;SDS011;51777;53.570;9.984;2022-10-16T16:00:41;7.05;;;2.00;;
65189;SDS011;51777;53.570;9.984;2022-10-16T16:03:10;15.90;;;1.77;;
65189;SDS011;51777;53.570;9.984;2022-10-16T16:05:38;7.78;;;1.70;;
65189;SDS011;51777;53.570;9.984;2022-10-16T16:08:05;8.15;;;1.65;;
65189;SDS011;51777;53.570;9.984;2022-10-16T16:10:30;8.07;;;2.05;;
65189;SDS011;51777;53.570;9.984;2022-10-16T16:12:56;9.00;;;1.80;;
65189;SDS011;51777;53.570;9.984;2022-10-16T16:15:22;3.80;;;1.50;;
65189;SDS011;51777;53.570;9.984;2022-10-16T16:17:47;6.05;;;1.48;;
65189;SDS011;51777;53.570;9.984;2022-10-16T16:20:14;10.13;;;1.80;;
65189;SDS011;51777;53.570;9.984;2022-10-16T16:22:46;10.00;;;1.80;;
65189;SDS011;51777;53.570;9.984;2022-10-16T16:25:21;9.43;;;2.15;;
65189;SDS011;51777;53.570;9.984;2022-10-16T16:27:46;7.63;;;2.00;;
65189;SDS011;51777;53.570;9.984;2022-10-16T16:30:12;6.97;;;1.85;;
65189;SDS011;51777;53.570;9.984;2022-10-16T16:32:42;7.40;;;2.72;;
65189;SDS011;51777;53.570;9.984;2022-10-16T16:35:08;12.27;;;5.25;;
65189;SDS011;51777;53.570;9.984;2022-10-16T16:37:34;22.50;;;11.32;;
65189;SDS011;51777;53.570;9.984;2022-10-16T16:39:59;17.98;;;10.05;;
65189;SDS011;51777;53.570;9.984;2022-10-16T16:42:28;28.05;;;13.55;;
65189;SDS011;51777;53.570;9.984;2022-10-16T16:44:53;22.75;;;8.90;;
65189;SDS011;51777;53.570;9.984;2022-10-16T16:47:28;29.15;;;15.77;;
65189;SDS011;51777;53.570;9.984;2022-10-16T16:49:57;24.73;;;14.57;;